KANW/ANW METAR and TAF weather

Enter ICAO airport designator
Station Type Date Time Source
KANW METAR 2022/12/08 13:55 UTC NOAA

KANW 081355Z AUTO 19003KT 10SM CLR M10/M12 A3010 RMK AO2 T11021118


Station Type Date Time Source
KANW Decoded METAR 2022/12/08 13:55 UTC NOAA

Ainsworth Municipal, NE, United States (KANW) 42-35N 100-00W
Dec 08, 2022 - 08:55 AM EST / 2022.12.08 1355 UTC
Wind: from the S (190 degrees) at 3 MPH (3 KT):0
Visibility: 10 mile(s):0
Sky conditions: clear
Temperature: 13.6 F (-10.2 C)
Dew Point: 10.8 F (-11.8 C)
Relative Humidity: 88%
Pressure (altimeter): 30.1 in. Hg (1019 hPa)
ob: KANW 081355Z AUTO 19003KT 10SM CLR M10/M12 A3010 RMK AO2 T11021118
cycle: 14

Station Type Date Time Source
KANW TAF UTC NOAA

Error!

Example: see airport list